Novo Progresso, Brazil
Current Conditions -  °F | °C
As of 10:00 AM on Thursday 30 Oct 2014 (Local Time) from SBIH Reporting Station
Few Clouds Few Clouds  
Wind Chill: 88°   Ceiling: Unl
Heat Index: 98°   Visibility: 6mi
Dew Point: 75°   Wind: 7mph
Humidity: 66%   Direction: 150°SSE
Pressure: 29.85"   Gusts: NA
Location:  7.15°S, 55.38°W
Report Text: SBIH 301300Z 15006KT 9999 FEW017 31/24 Q1011
Loading
Personal Weather Stations






























Interactive Weather Map
Tropical Storm Tracking
New forecast layout! Learn more

10-Day Weather Forecast

Advertisements
Track Severe Weather on mobile